sensor_id;sensor_type;location;lat;lon;timestamp;temperature;humidity
27266;DHT22;14766;51.380;13.762;2022-08-01T00:00:39;27.50;40.90
27266;DHT22;14766;51.380;13.762;2022-08-01T00:03:06;27.50;41.00
27266;DHT22;14766;51.380;13.762;2022-08-01T00:05:34;27.50;40.90
27266;DHT22;14766;51.380;13.762;2022-08-01T00:08:02;27.40;41.00
27266;DHT22;14766;51.380;13.762;2022-08-01T00:10:30;27.50;41.00
27266;DHT22;14766;51.380;13.762;2022-08-01T00:12:57;27.40;41.00
27266;DHT22;14766;51.380;13.762;2022-08-01T00:15:24;27.40;41.10
27266;DHT22;14766;51.380;13.762;2022-08-01T00:17:51;27.30;41.00
27266;DHT22;14766;51.380;13.762;2022-08-01T00:20:20;27.30;41.20
27266;DHT22;14766;51.380;13.762;2022-08-01T00:22:47;27.30;41.10
27266;DHT22;14766;51.380;13.762;2022-08-01T00:25:16;27.30;41.30
27266;DHT22;14766;51.380;13.762;2022-08-01T00:27:43;27.20;41.30
27266;DHT22;14766;51.380;13.762;2022-08-01T00:30:10;27.20;41.40
27266;DHT22;14766;51.380;13.762;2022-08-01T00:32:43;27.20;41.50
27266;DHT22;14766;51.380;13.762;2022-08-01T00:35:11;27.20;41.60
27266;DHT22;14766;51.380;13.762;2022-08-01T00:37:38;27.20;41.60
27266;DHT22;14766;51.380;13.762;2022-08-01T00:40:06;27.10;41.70
27266;DHT22;14766;51.380;13.762;2022-08-01T00:42:33;27.10;41.80
27266;DHT22;14766;51.380;13.762;2022-08-01T00:45:06;27.10;41.90
27266;DHT22;14766;51.380;13.762;2022-08-01T00:47:33;27.00;41.90
27266;DHT22;14766;51.380;13.762;2022-08-01T00:50:00;27.00;42.00
27266;DHT22;14766;51.380;13.762;2022-08-01T00:52:30;27.00;42.00
27266;DHT22;14766;51.380;13.762;2022-08-01T00:54:57;27.00;42.10
27266;DHT22;14766;51.380;13.762;2022-08-01T00:57:25;26.90;42.10
27266;DHT22;14766;51.380;13.762;2022-08-01T01:00:12;26.90;42.20
27266;DHT22;14766;51.380;13.762;2022-08-01T01:02:39;26.90;42.30
27266;DHT22;14766;51.380;13.762;2022-08-01T01:05:07;26.90;42.30
27266;DHT22;14766;51.380;13.762;2022-08-01T01:10:52;26.90;42.60
27266;DHT22;14766;51.380;13.762;2022-08-01T01:16:18;26.80;42.60
27266;DHT22;14766;51.380;13.762;2022-08-01T01:18:49;26.80;42.70
27266;DHT22;14766;51.380;13.762;2022-08-01T01:29:49;26.70;43.10
27266;DHT22;14766;51.380;13.762;2022-08-01T01:32:31;26.70;43.10
27266;DHT22;14766;51.380;13.762;2022-08-01T01:35:13;26.70;43.20
27266;DHT22;14766;51.380;13.762;2022-08-01T01:37:43;26.70;43.30
27266;DHT22;14766;51.380;13.762;2022-08-01T01:40:14;26.70;43.40
27266;DHT22;14766;51.380;13.762;2022-08-01T01:42:42;26.60;43.40
27266;DHT22;14766;51.380;13.762;2022-08-01T01:45:10;26.60;43.50
27266;DHT22;14766;51.380;13.762;2022-08-01T01:47:38;26.60;43.50
27266;DHT22;14766;51.380;13.762;2022-08-01T01:50:08;26.60;43.60
27266;DHT22;14766;51.380;13.762;2022-08-01T01:52:40;26.60;43.70
27266;DHT22;14766;51.380;13.762;2022-08-01T01:55:10;26.60;43.70
27266;DHT22;14766;51.380;13.762;2022-08-01T01:57:40;26.60;43.80
27266;DHT22;14766;51.380;13.762;2022-08-01T02:00:10;26.60;43.90
27266;DHT22;14766;51.380;13.762;2022-08-01T02:02:38;26.60;43.90
27266;DHT22;14766;51.380;13.762;2022-08-01T02:05:08;26.60;44.00
27266;DHT22;14766;51.380;13.762;2022-08-01T02:07:39;26.60;44.40
27266;DHT22;14766;51.380;13.762;2022-08-01T02:10:07;26.60;44.10
27266;DHT22;14766;51.380;13.762;2022-08-01T02:12:38;26.60;44.20
27266;DHT22;14766;51.380;13.762;2022-08-01T02:15:08;26.60;44.10
27266;DHT22;14766;51.380;13.762;2022-08-01T02:17:41;26.70;44.20
27266;DHT22;14766;51.380;13.762;2022-08-01T02:20:09;26.70;44.30
27266;DHT22;14766;51.380;13.762;2022-08-01T02:22:49;26.70;44.40
27266;DHT22;14766;51.380;13.762;2022-08-01T02:25:32;26.70;44.40
27266;DHT22;14766;51.380;13.762;2022-08-01T02:28:06;26.70;44.50
27266;DHT22;14766;51.380;13.762;2022-08-01T02:30:36;26.70;44.40
27266;DHT22;14766;51.380;13.762;2022-08-01T02:33:16;26.60;44.40
27266;DHT22;14766;51.380;13.762;2022-08-01T02:35:50;26.60;44.60
27266;DHT22;14766;51.380;13.762;2022-08-01T02:38:43;26.60;44.60
27266;DHT22;14766;51.380;13.762;2022-08-01T02:41:19;26.60;44.70
27266;DHT22;14766;51.380;13.762;2022-08-01T02:43:52;26.60;44.80
27266;DHT22;14766;51.380;13.762;2022-08-01T02:46:36;26.60;44.80
27266;DHT22;14766;51.380;13.762;2022-08-01T02:49:08;26.60;44.90
27266;DHT22;14766;51.380;13.762;2022-08-01T02:51:39;26.50;44.80
27266;DHT22;14766;51.380;13.762;2022-08-01T02:54:10;26.50;44.90
27266;DHT22;14766;51.380;13.762;2022-08-01T02:56:40;26.50;44.90
27266;DHT22;14766;51.380;13.762;2022-08-01T02:59:12;26.50;44.90
27266;DHT22;14766;51.380;13.762;2022-08-01T03:01:42;26.50;45.00
27266;DHT22;14766;51.380;13.762;2022-08-01T03:04:13;26.50;44.90
27266;DHT22;14766;51.380;13.762;2022-08-01T03:06:41;26.50;44.90
27266;DHT22;14766;51.380;13.762;2022-08-01T03:09:12;26.50;45.20
27266;DHT22;14766;51.380;13.762;2022-08-01T03:11:45;26.50;45.10
27266;DHT22;14766;51.380;13.762;2022-08-01T03:14:14;26.50;44.90
27266;DHT22;14766;51.380;13.762;2022-08-01T03:16:44;26.50;45.00
27266;DHT22;14766;51.380;13.762;2022-08-01T03:19:13;26.40;45.00
27266;DHT22;14766;51.380;13.762;2022-08-01T03:21:43;26.40;44.90
27266;DHT22;14766;51.380;13.762;2022-08-01T03:24:11;26.40;45.10
27266;DHT22;14766;51.380;13.762;2022-08-01T03:26:40;26.40;45.20
27266;DHT22;14766;51.380;13.762;2022-08-01T03:29:16;26.40;45.40
27266;DHT22;14766;51.380;13.762;2022-08-01T03:31:46;26.30;45.50
27266;DHT22;14766;51.380;13.762;2022-08-01T03:34:15;26.30;45.60
27266;DHT22;14766;51.380;13.762;2022-08-01T03:36:47;26.20;45.50
27266;DHT22;14766;51.380;13.762;2022-08-01T03:39:17;26.20;45.70
27266;DHT22;14766;51.380;13.762;2022-08-01T03:41:51;26.10;45.70
27266;DHT22;14766;51.380;13.762;2022-08-01T03:44:25;26.10;45.70
27266;DHT22;14766;51.380;13.762;2022-08-01T03:47:02;26.10;45.70
27266;DHT22;14766;51.380;13.762;2022-08-01T03:49:32;26.10;46.00
27266;DHT22;14766;51.380;13.762;2022-08-01T03:52:06;26.10;45.90
27266;DHT22;14766;51.380;13.762;2022-08-01T03:54:38;26.10;46.00
27266;DHT22;14766;51.380;13.762;2022-08-01T03:57:08;26.10;46.00
27266;DHT22;14766;51.380;13.762;2022-08-01T03:59:59;26.10;46.00
27266;DHT22;14766;51.380;13.762;2022-08-01T04:02:27;26.10;46.00
27266;DHT22;14766;51.380;13.762;2022-08-01T04:04:55;26.10;46.10
27266;DHT22;14766;51.380;13.762;2022-08-01T04:07:27;26.10;46.20
27266;DHT22;14766;51.380;13.762;2022-08-01T04:09:55;26.10;46.10
27266;DHT22;14766;51.380;13.762;2022-08-01T04:12:22;26.10;46.20
27266;DHT22;14766;51.380;13.762;2022-08-01T04:14:50;26.10;46.20
27266;DHT22;14766;51.380;13.762;2022-08-01T04:17:17;26.10;46.20
27266;DHT22;14766;51.380;13.762;2022-08-01T04:19:44;26.10;46.20
27266;DHT22;14766;51.380;13.762;2022-08-01T04:22:14;26.10;46.20
27266;DHT22;14766;51.380;13.762;2022-08-01T04:24:45;26.10;46.40
27266;DHT22;14766;51.380;13.762;2022-08-01T04:27:37;26.10;46.40
27266;DHT22;14766;51.380;13.762;2022-08-01T04:30:26;26.00;46.60
27266;DHT22;14766;51.380;13.762;2022-08-01T04:32:59;26.00;46.70
27266;DHT22;14766;51.380;13.762;2022-08-01T04:35:28;26.00;46.70
27266;DHT22;14766;51.380;13.762;2022-08-01T04:38:20;26.00;46.90
27266;DHT22;14766;51.380;13.762;2022-08-01T04:40:50;25.90;47.10
27266;DHT22;14766;51.380;13.762;2022-08-01T04:43:19;25.90;47.30
27266;DHT22;14766;51.380;13.762;2022-08-01T04:45:47;25.80;47.70
27266;DHT22;14766;51.380;13.762;2022-08-01T04:48:17;25.80;47.80
27266;DHT22;14766;51.380;13.762;2022-08-01T04:50:49;25.80;48.20
27266;DHT22;14766;51.380;13.762;2022-08-01T04:53:19;25.70;48.30
27266;DHT22;14766;51.380;13.762;2022-08-01T04:55:49;25.70;48.80
27266;DHT22;14766;51.380;13.762;2022-08-01T04:58:17;25.60;48.90
27266;DHT22;14766;51.380;13.762;2022-08-01T05:00:45;25.60;49.30
27266;DHT22;14766;51.380;13.762;2022-08-01T05:03:14;25.60;49.20
27266;DHT22;14766;51.380;13.762;2022-08-01T05:05:41;25.50;49.40
27266;DHT22;14766;51.380;13.762;2022-08-01T05:08:08;25.60;49.40
27266;DHT22;14766;51.380;13.762;2022-08-01T05:10:36;25.60;49.30
27266;DHT22;14766;51.380;13.762;2022-08-01T05:13:04;25.60;49.40
27266;DHT22;14766;51.380;13.762;2022-08-01T05:15:35;25.60;49.20
27266;DHT22;14766;51.380;13.762;2022-08-01T05:18:03;25.60;49.20
27266;DHT22;14766;51.380;13.762;2022-08-01T05:20:34;25.60;49.20
27266;DHT22;14766;51.380;13.762;2022-08-01T05:23:06;25.70;49.20
27266;DHT22;14766;51.380;13.762;2022-08-01T05:25:45;25.70;49.20
27266;DHT22;14766;51.380;13.762;2022-08-01T05:28:24;25.70;49.30
27266;DHT22;14766;51.380;13.762;2022-08-01T05:30:51;25.70;49.20
27266;DHT22;14766;51.380;13.762;2022-08-01T05:33:21;25.80;49.30
27266;DHT22;14766;51.380;13.762;2022-08-01T05:35:48;25.80;49.40
27266;DHT22;14766;51.380;13.762;2022-08-01T05:38:16;25.80;49.60
27266;DHT22;14766;51.380;13.762;2022-08-01T05:40:44;25.80;49.80
27266;DHT22;14766;51.380;13.762;2022-08-01T05:43:11;25.80;50.00
27266;DHT22;14766;51.380;13.762;2022-08-01T05:45:38;25.80;50.10
27266;DHT22;14766;51.380;13.762;2022-08-01T05:48:05;25.90;50.00
27266;DHT22;14766;51.380;13.762;2022-08-01T05:50:33;25.90;50.20
27266;DHT22;14766;51.380;13.762;2022-08-01T05:53:00;26.00;50.60
27266;DHT22;14766;51.380;13.762;2022-08-01T05:55:28;26.00;50.70
27266;DHT22;14766;51.380;13.762;2022-08-01T05:57:56;26.00;50.90
27266;DHT22;14766;51.380;13.762;2022-08-01T06:00:24;26.10;51.30
27266;DHT22;14766;51.380;13.762;2022-08-01T06:02:51;26.10;51.30
27266;DHT22;14766;51.380;13.762;2022-08-01T06:05:18;26.20;52.10
27266;DHT22;14766;51.380;13.762;2022-08-01T06:07:47;26.20;52.20
27266;DHT22;14766;51.380;13.762;2022-08-01T06:10:14;26.20;52.20
27266;DHT22;14766;51.380;13.762;2022-08-01T06:12:41;26.20;52.20
27266;DHT22;14766;51.380;13.762;2022-08-01T06:15:09;26.30;52.30
27266;DHT22;14766;51.380;13.762;2022-08-01T06:17:36;26.40;52.40
27266;DHT22;14766;51.380;13.762;2022-08-01T06:20:05;26.40;52.30
27266;DHT22;14766;51.380;13.762;2022-08-01T06:22:34;26.40;52.30
27266;DHT22;14766;51.380;13.762;2022-08-01T06:25:05;26.40;52.10
27266;DHT22;14766;51.380;13.762;2022-08-01T06:27:36;26.40;52.00
27266;DHT22;14766;51.380;13.762;2022-08-01T06:30:05;26.40;52.10
27266;DHT22;14766;51.380;13.762;2022-08-01T06:32:34;26.40;52.00
27266;DHT22;14766;51.380;13.762;2022-08-01T06:35:03;26.40;52.20
27266;DHT22;14766;51.380;13.762;2022-08-01T06:37:31;26.40;52.70
27266;DHT22;14766;51.380;13.762;2022-08-01T06:40:04;26.40;53.10
27266;DHT22;14766;51.380;13.762;2022-08-01T06:42:33;26.40;53.30
27266;DHT22;14766;51.380;13.762;2022-08-01T06:45:03;26.30;53.50
27266;DHT22;14766;51.380;13.762;2022-08-01T06:47:31;26.30;53.80
27266;DHT22;14766;51.380;13.762;2022-08-01T06:50:01;26.30;53.80
27266;DHT22;14766;51.380;13.762;2022-08-01T06:52:29;26.30;54.00
27266;DHT22;14766;51.380;13.762;2022-08-01T06:54:58;26.30;54.00
27266;DHT22;14766;51.380;13.762;2022-08-01T06:57:28;26.30;54.10
27266;DHT22;14766;51.380;13.762;2022-08-01T06:59:57;26.30;54.90
27266;DHT22;14766;51.380;13.762;2022-08-01T07:02:24;26.30;55.30
27266;DHT22;14766;51.380;13.762;2022-08-01T07:04:51;26.40;55.20
27266;DHT22;14766;51.380;13.762;2022-08-01T07:07:18;26.40;55.00
27266;DHT22;14766;51.380;13.762;2022-08-01T07:09:45;26.40;54.70
27266;DHT22;14766;51.380;13.762;2022-08-01T07:12:12;26.40;54.70
27266;DHT22;14766;51.380;13.762;2022-08-01T07:14:39;26.40;54.80
27266;DHT22;14766;51.380;13.762;2022-08-01T07:17:06;26.40;54.70
27266;DHT22;14766;51.380;13.762;2022-08-01T07:19:33;26.50;54.40
27266;DHT22;14766;51.380;13.762;2022-08-01T07:22:04;26.50;54.00
27266;DHT22;14766;51.380;13.762;2022-08-01T07:24:31;26.60;53.80
27266;DHT22;14766;51.380;13.762;2022-08-01T07:27:01;26.70;53.70
27266;DHT22;14766;51.380;13.762;2022-08-01T07:29:48;26.70;53.70
27266;DHT22;14766;51.380;13.762;2022-08-01T07:32:17;26.80;53.60
27266;DHT22;14766;51.380;13.762;2022-08-01T07:34:44;26.90;53.40
27266;DHT22;14766;51.380;13.762;2022-08-01T07:37:14;27.00;53.30
27266;DHT22;14766;51.380;13.762;2022-08-01T07:39:41;26.90;53.20
27266;DHT22;14766;51.380;13.762;2022-08-01T07:42:09;26.90;53.10
27266;DHT22;14766;51.380;13.762;2022-08-01T07:44:40;26.90;52.90
27266;DHT22;14766;51.380;13.762;2022-08-01T07:47:08;26.90;52.80
27266;DHT22;14766;51.380;13.762;2022-08-01T07:49:35;26.80;52.90
27266;DHT22;14766;51.380;13.762;2022-08-01T07:52:07;26.80;53.00
27266;DHT22;14766;51.380;13.762;2022-08-01T07:54:35;26.80;53.00
27266;DHT22;14766;51.380;13.762;2022-08-01T07:57:03;26.80;53.20
27266;DHT22;14766;51.380;13.762;2022-08-01T07:59:33;26.80;53.20
27266;DHT22;14766;51.380;13.762;2022-08-01T08:02:01;26.90;53.40
27266;DHT22;14766;51.380;13.762;2022-08-01T08:04:29;27.00;53.30
27266;DHT22;14766;51.380;13.762;2022-08-01T08:06:57;27.00;53.10
27266;DHT22;14766;51.380;13.762;2022-08-01T08:09:24;27.10;53.10
27266;DHT22;14766;51.380;13.762;2022-08-01T08:11:51;27.20;52.70
27266;DHT22;14766;51.380;13.762;2022-08-01T08:14:19;27.30;52.10
27266;DHT22;14766;51.380;13.762;2022-08-01T08:16:46;27.30;52.10
27266;DHT22;14766;51.380;13.762;2022-08-01T08:19:13;27.30;52.00
27266;DHT22;14766;51.380;13.762;2022-08-01T08:21:41;27.30;51.80
27266;DHT22;14766;51.380;13.762;2022-08-01T08:24:09;27.40;51.70
27266;DHT22;14766;51.380;13.762;2022-08-01T08:26:57;27.30;51.50
27266;DHT22;14766;51.380;13.762;2022-08-01T08:29:26;27.40;51.40
27266;DHT22;14766;51.380;13.762;2022-08-01T08:31:54;27.30;51.40
27266;DHT22;14766;51.380;13.762;2022-08-01T08:34:30;27.30;52.50
27266;DHT22;14766;51.380;13.762;2022-08-01T08:36:58;27.20;53.40
27266;DHT22;14766;51.380;13.762;2022-08-01T08:39:27;27.20;54.00
27266;DHT22;14766;51.380;13.762;2022-08-01T08:41:59;27.10;54.20
27266;DHT22;14766;51.380;13.762;2022-08-01T08:44:29;27.00;54.30
27266;DHT22;14766;51.380;13.762;2022-08-01T08:46:58;26.90;54.40
27266;DHT22;14766;51.380;13.762;2022-08-01T08:49:29;26.80;54.60
27266;DHT22;14766;51.380;13.762;2022-08-01T08:52:03;26.80;54.80
27266;DHT22;14766;51.380;13.762;2022-08-01T08:54:36;26.80;55.10
27266;DHT22;14766;51.380;13.762;2022-08-01T08:57:04;26.80;55.20
27266;DHT22;14766;51.380;13.762;2022-08-01T08:59:32;26.80;54.70
27266;DHT22;14766;51.380;13.762;2022-08-01T09:01:59;26.90;54.60
27266;DHT22;14766;51.380;13.762;2022-08-01T09:04:26;27.00;54.60
27266;DHT22;14766;51.380;13.762;2022-08-01T09:06:54;27.00;54.10
27266;DHT22;14766;51.380;13.762;2022-08-01T09:09:23;27.10;54.00
27266;DHT22;14766;51.380;13.762;2022-08-01T09:11:50;27.10;53.60
27266;DHT22;14766;51.380;13.762;2022-08-01T09:14:26;27.20;53.40
27266;DHT22;14766;51.380;13.762;2022-08-01T09:17:05;27.30;52.90
27266;DHT22;14766;51.380;13.762;2022-08-01T09:19:40;27.30;52.80
27266;DHT22;14766;51.380;13.762;2022-08-01T09:22:10;27.40;52.20
27266;DHT22;14766;51.380;13.762;2022-08-01T09:24:40;27.50;51.60
27266;DHT22;14766;51.380;13.762;2022-08-01T09:27:20;27.50;51.00
27266;DHT22;14766;51.380;13.762;2022-08-01T09:29:51;27.50;50.50
27266;DHT22;14766;51.380;13.762;2022-08-01T09:32:30;27.60;50.50
27266;DHT22;14766;51.380;13.762;2022-08-01T09:35:27;27.60;50.70
27266;DHT22;14766;51.380;13.762;2022-08-01T09:38:16;27.70;50.60
27266;DHT22;14766;51.380;13.762;2022-08-01T09:43:15;27.80;51.20
27266;DHT22;14766;51.380;13.762;2022-08-01T09:45:42;27.80;50.50
27266;DHT22;14766;51.380;13.762;2022-08-01T09:48:18;27.90;50.30
27266;DHT22;14766;51.380;13.762;2022-08-01T09:50:51;27.90;50.20
27266;DHT22;14766;51.380;13.762;2022-08-01T09:53:19;27.90;50.20
27266;DHT22;14766;51.380;13.762;2022-08-01T09:56:09;27.90;50.10
27266;DHT22;14766;51.380;13.762;2022-08-01T09:58:58;27.90;50.40
27266;DHT22;14766;51.380;13.762;2022-08-01T10:01:40;28.00;50.20
27266;DHT22;14766;51.380;13.762;2022-08-01T10:04:17;28.00;50.50
27266;DHT22;14766;51.380;13.762;2022-08-01T10:06:46;28.10;50.10
27266;DHT22;14766;51.380;13.762;2022-08-01T10:09:27;28.30;49.60
27266;DHT22;14766;51.380;13.762;2022-08-01T10:12:08;28.30;49.20
27266;DHT22;14766;51.380;13.762;2022-08-01T10:14:45;28.40;49.00
27266;DHT22;14766;51.380;13.762;2022-08-01T10:17:18;28.40;49.00
27266;DHT22;14766;51.380;13.762;2022-08-01T10:19:49;28.40;48.90
27266;DHT22;14766;51.380;13.762;2022-08-01T10:22:23;28.40;48.90
27266;DHT22;14766;51.380;13.762;2022-08-01T10:24:54;28.40;48.80
27266;DHT22;14766;51.380;13.762;2022-08-01T10:27:23;28.40;48.70
27266;DHT22;14766;51.380;13.762;2022-08-01T10:30:04;28.40;48.50
27266;DHT22;14766;51.380;13.762;2022-08-01T10:32:47;28.30;48.40
27266;DHT22;14766;51.380;13.762;2022-08-01T10:35:17;28.30;48.50
27266;DHT22;14766;51.380;13.762;2022-08-01T10:38:05;28.30;49.60
27266;DHT22;14766;51.380;13.762;2022-08-01T10:40:41;28.20;49.10
27266;DHT22;14766;51.380;13.762;2022-08-01T10:43:09;28.10;49.40
27266;DHT22;14766;51.380;13.762;2022-08-01T10:45:38;28.10;49.90
27266;DHT22;14766;51.380;13.762;2022-08-01T10:48:16;28.00;50.50
27266;DHT22;14766;51.380;13.762;2022-08-01T10:50:49;27.90;50.70
27266;DHT22;14766;51.380;13.762;2022-08-01T10:53:21;27.90;51.60
27266;DHT22;14766;51.380;13.762;2022-08-01T10:56:08;27.80;53.50
27266;DHT22;14766;51.380;13.762;2022-08-01T10:58:44;27.90;54.10
27266;DHT22;14766;51.380;13.762;2022-08-01T11:01:31;28.00;53.00
27266;DHT22;14766;51.380;13.762;2022-08-01T11:04:07;28.00;50.80
27266;DHT22;14766;51.380;13.762;2022-08-01T11:09:24;28.20;49.50
27266;DHT22;14766;51.380;13.762;2022-08-01T11:12:13;28.20;49.60
27266;DHT22;14766;51.380;13.762;2022-08-01T11:28:27;29.60;46.30
27266;DHT22;14766;51.380;13.762;2022-08-01T11:41:41;30.30;44.90
27266;DHT22;14766;51.380;13.762;2022-08-01T11:44:16;30.40;44.70
27266;DHT22;14766;51.380;13.762;2022-08-01T11:47:02;30.50;44.60
27266;DHT22;14766;51.380;13.762;2022-08-01T11:52:18;30.70;44.10
27266;DHT22;14766;51.380;13.762;2022-08-01T11:54:49;30.80;43.70
27266;DHT22;14766;51.380;13.762;2022-08-01T11:57:22;30.90;43.30
27266;DHT22;14766;51.380;13.762;2022-08-01T12:00:19;30.90;42.90
27266;DHT22;14766;51.380;13.762;2022-08-01T12:02:57;31.00;43.30
27266;DHT22;14766;51.380;13.762;2022-08-01T12:05:27;31.00;43.10
27266;DHT22;14766;51.380;13.762;2022-08-01T12:07:57;31.00;43.10
27266;DHT22;14766;51.380;13.762;2022-08-01T12:10:30;31.10;43.00
27266;DHT22;14766;51.380;13.762;2022-08-01T12:13:13;31.20;42.70
27266;DHT22;14766;51.380;13.762;2022-08-01T12:15:41;31.30;42.70
27266;DHT22;14766;51.380;13.762;2022-08-01T12:18:09;31.40;42.40
27266;DHT22;14766;51.380;13.762;2022-08-01T12:20:39;31.40;42.10
27266;DHT22;14766;51.380;13.762;2022-08-01T12:23:22;31.50;41.80
27266;DHT22;14766;51.380;13.762;2022-08-01T12:25:52;31.50;42.00
27266;DHT22;14766;51.380;13.762;2022-08-01T12:28:21;31.50;41.60
27266;DHT22;14766;51.380;13.762;2022-08-01T12:30:50;31.60;41.60
27266;DHT22;14766;51.380;13.762;2022-08-01T12:33:18;31.60;41.20
27266;DHT22;14766;51.380;13.762;2022-08-01T12:35:46;31.60;40.70
27266;DHT22;14766;51.380;13.762;2022-08-01T12:38:20;31.50;40.90
27266;DHT22;14766;51.380;13.762;2022-08-01T12:40:51;31.50;40.70
27266;DHT22;14766;51.380;13.762;2022-08-01T12:43:22;31.50;40.80
27266;DHT22;14766;51.380;13.762;2022-08-01T12:45:57;31.50;40.70
27266;DHT22;14766;51.380;13.762;2022-08-01T12:48:25;31.50;40.90
27266;DHT22;14766;51.380;13.762;2022-08-01T12:50:54;31.50;40.60
27266;DHT22;14766;51.380;13.762;2022-08-01T12:53:25;31.50;40.20
27266;DHT22;14766;51.380;13.762;2022-08-01T12:56:05;31.40;40.30
27266;DHT22;14766;51.380;13.762;2022-08-01T12:58:33;31.40;40.60
27266;DHT22;14766;51.380;13.762;2022-08-01T13:01:09;31.30;41.90
27266;DHT22;14766;51.380;13.762;2022-08-01T13:03:39;31.20;47.00
27266;DHT22;14766;51.380;13.762;2022-08-01T13:06:14;31.00;48.10
27266;DHT22;14766;51.380;13.762;2022-08-01T13:08:44;30.80;48.70
27266;DHT22;14766;51.380;13.762;2022-08-01T13:11:13;30.60;48.60
27266;DHT22;14766;51.380;13.762;2022-08-01T13:13:50;30.30;48.90
27266;DHT22;14766;51.380;13.762;2022-08-01T13:16:23;30.10;49.60
27266;DHT22;14766;51.380;13.762;2022-08-01T13:19:11;29.90;50.00
27266;DHT22;14766;51.380;13.762;2022-08-01T13:21:38;29.70;51.00
27266;DHT22;14766;51.380;13.762;2022-08-01T13:24:28;29.50;52.20
27266;DHT22;14766;51.380;13.762;2022-08-01T13:26:56;29.40;53.00
27266;DHT22;14766;51.380;13.762;2022-08-01T13:29:31;29.30;55.50
27266;DHT22;14766;51.380;13.762;2022-08-01T13:32:20;29.30;54.40
27266;DHT22;14766;51.380;13.762;2022-08-01T13:35:07;29.30;55.20
27266;DHT22;14766;51.380;13.762;2022-08-01T13:37:36;29.30;54.80
27266;DHT22;14766;51.380;13.762;2022-08-01T13:40:05;29.30;54.30
27266;DHT22;14766;51.380;13.762;2022-08-01T13:42:33;29.30;54.30
27266;DHT22;14766;51.380;13.762;2022-08-01T13:45:02;29.30;54.50
27266;DHT22;14766;51.380;13.762;2022-08-01T13:47:43;29.40;54.40
27266;DHT22;14766;51.380;13.762;2022-08-01T13:50:32;29.40;54.10
27266;DHT22;14766;51.380;13.762;2022-08-01T13:53:00;29.50;53.80
27266;DHT22;14766;51.380;13.762;2022-08-01T13:55:27;29.60;52.10
27266;DHT22;14766;51.380;13.762;2022-08-01T13:58:01;29.60;51.90
27266;DHT22;14766;51.380;13.762;2022-08-01T14:00:30;29.70;53.00
27266;DHT22;14766;51.380;13.762;2022-08-01T14:02:57;29.70;52.60
27266;DHT22;14766;51.380;13.762;2022-08-01T14:05:24;29.70;52.10
27266;DHT22;14766;51.380;13.762;2022-08-01T14:07:51;29.80;51.90
27266;DHT22;14766;51.380;13.762;2022-08-01T14:10:23;29.80;51.50
27266;DHT22;14766;51.380;13.762;2022-08-01T14:12:50;29.90;51.10
27266;DHT22;14766;51.380;13.762;2022-08-01T14:15:18;30.00;50.30
27266;DHT22;14766;51.380;13.762;2022-08-01T14:18:06;30.00;50.00
27266;DHT22;14766;51.380;13.762;2022-08-01T14:20:38;30.10;49.10
27266;DHT22;14766;51.380;13.762;2022-08-01T14:23:08;30.10;48.20
27266;DHT22;14766;51.380;13.762;2022-08-01T14:25:37;30.10;48.10
27266;DHT22;14766;51.380;13.762;2022-08-01T14:28:24;30.20;48.30
27266;DHT22;14766;51.380;13.762;2022-08-01T14:30:55;30.20;46.70
27266;DHT22;14766;51.380;13.762;2022-08-01T14:33:24;30.20;46.80
27266;DHT22;14766;51.380;13.762;2022-08-01T14:35:51;30.20;46.50
27266;DHT22;14766;51.380;13.762;2022-08-01T14:38:34;30.20;46.50
27266;DHT22;14766;51.380;13.762;2022-08-01T14:41:02;30.20;46.20
27266;DHT22;14766;51.380;13.762;2022-08-01T14:43:30;30.20;46.00
27266;DHT22;14766;51.380;13.762;2022-08-01T14:46:01;30.20;45.60
27266;DHT22;14766;51.380;13.762;2022-08-01T14:48:32;30.20;45.60
27266;DHT22;14766;51.380;13.762;2022-08-01T14:50:59;30.20;45.50
27266;DHT22;14766;51.380;13.762;2022-08-01T14:53:30;30.10;45.10
27266;DHT22;14766;51.380;13.762;2022-08-01T14:56:05;30.10;44.70
27266;DHT22;14766;51.380;13.762;2022-08-01T14:58:34;30.00;44.90
27266;DHT22;14766;51.380;13.762;2022-08-01T15:01:01;30.10;45.30
27266;DHT22;14766;51.380;13.762;2022-08-01T15:03:29;30.10;45.00
27266;DHT22;14766;51.380;13.762;2022-08-01T15:05:58;30.00;44.50
27266;DHT22;14766;51.380;13.762;2022-08-01T15:08:26;30.00;44.20
27266;DHT22;14766;51.380;13.762;2022-08-01T15:10:54;30.00;44.10
27266;DHT22;14766;51.380;13.762;2022-08-01T15:13:21;30.00;44.00
27266;DHT22;14766;51.380;13.762;2022-08-01T15:15:48;30.00;44.00
27266;DHT22;14766;51.380;13.762;2022-08-01T15:18:15;30.00;43.90
27266;DHT22;14766;51.380;13.762;2022-08-01T15:20:42;30.00;43.40
27266;DHT22;14766;51.380;13.762;2022-08-01T15:23:10;30.00;43.20
27266;DHT22;14766;51.380;13.762;2022-08-01T15:25:37;30.00;43.50
27266;DHT22;14766;51.380;13.762;2022-08-01T15:28:10;30.00;43.40
27266;DHT22;14766;51.380;13.762;2022-08-01T15:30:38;30.00;43.20
27266;DHT22;14766;51.380;13.762;2022-08-01T15:33:06;30.00;43.10
27266;DHT22;14766;51.380;13.762;2022-08-01T15:35:35;29.90;42.80
27266;DHT22;14766;51.380;13.762;2022-08-01T15:38:04;29.90;42.80
27266;DHT22;14766;51.380;13.762;2022-08-01T15:40:31;29.80;42.90
27266;DHT22;14766;51.380;13.762;2022-08-01T15:43:02;29.80;42.80
27266;DHT22;14766;51.380;13.762;2022-08-01T15:45:30;29.70;42.90
27266;DHT22;14766;51.380;13.762;2022-08-01T15:48:17;29.70;43.10
27266;DHT22;14766;51.380;13.762;2022-08-01T15:50:45;29.60;43.10
27266;DHT22;14766;51.380;13.762;2022-08-01T15:53:14;29.60;42.90
27266;DHT22;14766;51.380;13.762;2022-08-01T15:55:41;29.60;42.80
27266;DHT22;14766;51.380;13.762;2022-08-01T15:58:18;29.60;42.60
27266;DHT22;14766;51.380;13.762;2022-08-01T16:00:47;29.50;42.60
27266;DHT22;14766;51.380;13.762;2022-08-01T16:03:16;29.50;42.90
27266;DHT22;14766;51.380;13.762;2022-08-01T16:05:43;29.50;42.40
27266;DHT22;14766;51.380;13.762;2022-08-01T16:08:11;29.50;42.60
27266;DHT22;14766;51.380;13.762;2022-08-01T16:10:41;29.50;42.60
27266;DHT22;14766;51.380;13.762;2022-08-01T16:13:10;29.50;42.00
27266;DHT22;14766;51.380;13.762;2022-08-01T16:15:37;29.50;41.60
27266;DHT22;14766;51.380;13.762;2022-08-01T16:18:07;29.50;41.60
27266;DHT22;14766;51.380;13.762;2022-08-01T16:20:34;29.50;41.90
27266;DHT22;14766;51.380;13.762;2022-08-01T16:23:06;29.50;41.80
27266;DHT22;14766;51.380;13.762;2022-08-01T16:25:34;29.50;41.70
27266;DHT22;14766;51.380;13.762;2022-08-01T16:28:01;29.50;41.70